Time;durP1;ratioP1;P1;durP2;ratioP2;P2;SDS_P1;SDS_P2;PMS_P1;PMS_P2;Temp;Humidity;BMP_temperature;BMP_pressure;BME280_temperature;BME280_humidity;BME280_pressure;Samples;Min_cycle;Max_cycle;Signal;HPM_P1;HPM_P2
2022/05/05 00:01:18;;;;;;;4.23;2.73;;;;;;;9.99;62.90;101909.31;5034561;28;20025;-77
2022/05/05 00:03:44;;;;;;;4.37;2.80;;;;;;;9.98;62.75;101907.56;5034457;28;20373;-77
2022/05/05 00:06:09;;;;;;;4.70;2.70;;;;;;;9.97;63.09;101912.72;5034679;28;20167;-77
2022/05/05 00:08:34;;;;;;;5.70;3.00;;;;;;;9.96;63.02;101911.03;5034026;28;20052;-77
2022/05/05 00:16:27;;;;;;;5.80;3.00;;;;;;;9.88;63.48;101911.84;5033756;28;20401;-77
2022/05/05 00:18:53;;;;;;;5.17;2.90;;;;;;;9.87;63.18;101911.84;5034329;28;20025;-77
2022/05/05 00:21:18;;;;;;;4.60;2.93;;;;;;;9.86;63.14;101908.34;5034580;28;20083;-77
2022/05/05 00:23:43;;;;;;;5.33;3.00;;;;;;;9.86;63.67;101910.09;5033597;28;20024;-77
2022/05/05 00:26:08;;;;;;;5.23;3.20;;;;;;;9.86;63.47;101908.34;5034721;28;20535;-77
2022/05/05 00:28:34;;;;;;;3.43;2.57;;;;;;;9.86;63.62;101907.50;5034534;28;20033;-77
2022/05/05 00:30:59;;;;;;;5.60;3.10;;;;;;;9.86;63.69;101904.91;5033620;28;20120;-77
2022/05/05 00:33:24;;;;;;;3.93;2.80;;;;;;;9.87;63.66;101907.50;5034343;28;20112;-77
2022/05/05 00:35:50;;;;;;;3.63;2.63;;;;;;;9.88;63.73;101903.19;5033679;28;20064;-77
2022/05/05 00:38:15;;;;;;;4.53;2.77;;;;;;;9.87;63.72;101907.50;5033480;28;20034;-77
2022/05/05 00:40:43;;;;;;;4.67;2.80;;;;;;;9.84;63.60;101907.50;5034115;28;20029;-77
2022/05/05 00:43:09;;;;;;;4.35;2.70;;;;;;;9.84;63.71;101909.22;5034370;28;20029;-77
2022/05/05 00:45:35;;;;;;;5.07;2.97;;;;;;;9.81;63.62;101911.78;5033590;28;20022;-77
2022/05/05 00:48:08;;;;;;;4.43;2.80;;;;;;;9.78;63.73;101899.69;5033835;28;20393;-77
2022/05/05 00:50:35;;;;;;;5.55;3.15;;;;;;;9.75;63.83;101902.25;5033071;28;20033;-77
2022/05/05 00:53:02;;;;;;;4.95;2.92;;;;;;;9.70;63.98;101897.06;5033373;28;20041;-77
2022/05/05 00:55:32;;;;;;;4.25;2.90;;;;;;;9.67;63.62;101899.66;5033824;28;20482;-77
2022/05/05 00:57:58;;;;;;;5.63;3.13;;;;;;;9.62;63.90;101895.31;5031820;28;20688;-77
2022/05/05 01:00:23;;;;;;;4.70;3.00;;;;;;;9.59;63.98;101901.31;5033440;28;20029;-77
2022/05/05 01:02:52;;;;;;;5.20;3.13;;;;;;;9.53;64.20;101896.09;5033139;28;20028;-77
2022/05/05 01:05:17;;;;;;;5.25;3.10;;;;;;;9.50;64.32;101896.06;5032469;28;20025;-78
2022/05/05 01:07:42;;;;;;;4.90;3.17;;;;;;;9.45;64.57;101893.47;5033654;28;20541;-77
2022/05/05 01:10:09;;;;;;;5.50;3.30;;;;;;;9.42;64.41;101901.22;5033908;28;20482;-77
2022/05/05 01:12:34;;;;;;;4.30;2.80;;;;;;;9.39;64.79;101911.56;5033073;28;20033;-77
2022/05/05 01:15:00;;;;;;;4.90;3.10;;;;;;;9.34;64.64;101901.19;5033171;28;20657;-77
2022/05/05 01:17:26;;;;;;;5.53;3.13;;;;;;;9.29;65.13;101897.69;5033434;28;20107;-78
2022/05/05 01:19:51;;;;;;;4.32;2.90;;;;;;;9.25;65.18;101893.31;5032317;28;20116;-77
2022/05/05 01:22:17;;;;;;;5.43;3.00;;;;;;;9.22;65.25;101895.91;5033748;28;20097;-77
2022/05/05 01:30:11;;;;;;;4.38;2.83;;;;;;;9.12;65.32;101892.38;5033253;28;20559;-77
2022/05/05 01:32:37;;;;;;;4.63;3.00;;;;;;;9.07;65.48;101894.94;5033237;28;20025;-77
2022/05/05 01:35:02;;;;;;;5.57;3.10;;;;;;;9.07;65.27;101894.94;5031266;28;20037;-77
2022/05/05 01:37:29;;;;;;;5.00;2.90;;;;;;;9.03;65.35;101895.75;5033435;28;20029;-77
2022/05/05 01:39:54;;;;;;;5.40;3.22;;;;;;;9.01;65.34;101899.19;5031919;28;20371;-77
2022/05/05 01:42:19;;;;;;;5.60;3.23;;;;;;;8.96;65.75;101891.38;5033541;28;20030;-77
2022/05/05 01:44:45;;;;;;;5.50;3.20;;;;;;;8.94;65.78;101893.97;5032878;28;20029;-77
2022/05/05 01:47:10;;;;;;;6.40;3.30;;;;;;;8.91;65.71;101890.47;5032273;28;20529;-77
2022/05/05 01:49:36;;;;;;;6.40;3.30;;;;;;;8.90;65.84;101894.78;5032989;28;20040;-77
2022/05/05 01:52:02;;;;;;;4.97;3.20;;;;;;;8.88;65.66;101893.06;5032876;28;20045;-78
2022/05/05 01:54:27;;;;;;;5.13;3.17;;;;;;;8.87;66.09;101904.25;5032277;28;20132;-77
2022/05/05 01:56:52;;;;;;;5.83;3.37;;;;;;;8.85;65.98;101901.63;5032680;28;20124;-79
2022/05/05 01:59:17;;;;;;;5.87;3.07;;;;;;;8.86;66.29;101902.53;5032906;28;20021;-77
2022/05/05 02:01:43;;;;;;;5.07;3.07;;;;;;;8.85;66.32;101900.78;5031719;28;20405;-77
2022/05/05 02:04:08;;;;;;;5.37;3.13;;;;;;;8.85;66.45;101904.22;5032489;28;20041;-77
2022/05/05 02:06:35;;;;;;;5.70;3.10;;;;;;;8.84;66.41;101904.22;5032617;28;20037;-77
2022/05/05 02:09:00;;;;;;;4.72;2.92;;;;;;;8.84;66.34;101909.41;5031208;28;20036;-77
2022/05/05 02:11:25;;;;;;;4.85;2.97;;;;;;;8.83;66.37;101908.53;5032966;28;20029;-77
2022/05/05 02:13:51;;;;;;;5.80;3.17;;;;;;;8.84;66.31;101904.22;5032229;28;20033;-77
2022/05/05 02:16:17;;;;;;;6.57;3.53;;;;;;;8.85;66.93;101908.53;5031820;28;20044;-77
2022/05/05 02:18:42;;;;;;;5.40;3.23;;;;;;;8.85;66.30;101908.53;5032620;28;20044;-77
2022/05/05 02:21:07;;;;;;;5.37;3.07;;;;;;;8.85;66.68;101906.81;5032749;28;20525;-77
2022/05/05 02:23:33;;;;;;;4.43;2.83;;;;;;;8.87;66.68;101909.44;5031717;28;20025;-77
2022/05/05 02:25:58;;;;;;;4.90;3.00;;;;;;;8.89;66.48;101908.59;5032309;28;20033;-77
2022/05/05 02:28:23;;;;;;;4.93;3.30;;;;;;;8.91;66.99;101909.47;5032518;28;20468;-77
2022/05/05 02:30:48;;;;;;;4.10;2.80;;;;;;;8.92;66.79;101907.72;5031021;28;20025;-77
2022/05/05 02:33:14;;;;;;;5.03;3.03;;;;;;;8.93;67.30;101909.47;5032828;28;20401;-77
2022/05/05 02:35:39;;;;;;;4.67;2.80;;;;;;;8.93;67.15;101912.94;5032268;28;20034;-77
2022/05/05 02:40:48;;;;;;;4.82;2.97;;;;;;;8.93;67.09;101907.78;5012802;28;20041;-77
2022/05/05 02:43:14;;;;;;;3.87;2.73;;;;;;;8.94;67.19;101906.91;5012472;28;20022;-77
2022/05/05 02:45:40;;;;;;;4.70;2.87;;;;;;;8.95;67.15;101911.22;5032281;28;20026;-77
2022/05/05 02:48:06;;;;;;;4.25;2.88;;;;;;;8.95;67.19;101907.78;5032455;28;20025;-77
2022/05/05 02:50:31;;;;;;;4.68;2.70;;;;;;;8.95;67.24;101907.78;5031849;28;20018;-77
2022/05/05 02:52:57;;;;;;;3.63;2.57;;;;;;;8.92;67.34;101902.56;5031856;28;20132;-77
2022/05/05 02:55:23;;;;;;;4.63;2.75;;;;;;;8.92;67.33;101911.22;5032183;28;20033;-77
2022/05/05 02:57:48;;;;;;;4.07;2.77;;;;;;;8.93;67.42;101909.47;5030576;28;20073;-77
2022/05/05 03:00:14;;;;;;;5.90;3.17;;;;;;;8.92;67.20;101911.22;5032049;28;20039;-77
2022/05/05 03:02:41;;;;;;;5.20;3.00;;;;;;;8.92;67.28;101910.31;5012301;28;20033;-77
2022/05/05 03:05:08;;;;;;;5.35;3.22;;;;;;;8.91;67.61;101906.88;5011777;28;20284;-77
2022/05/05 03:07:34;;;;;;;4.63;2.78;;;;;;;8.90;67.58;101906.84;5012565;28;20105;-77
2022/05/05 03:09:59;;;;;;;4.40;2.70;;;;;;;8.86;67.55;101905.09;5027521;28;20119;-77
2022/05/05 03:12:25;;;;;;;4.50;2.93;;;;;;;8.84;67.85;101909.41;5031290;28;20029;-77
2022/05/05 03:14:50;;;;;;;4.43;2.90;;;;;;;8.80;67.55;101906.78;5031559;28;20033;-77
2022/05/05 03:17:15;;;;;;;6.77;3.50;;;;;;;8.78;67.77;101908.47;5032150;28;20039;-77
2022/05/05 03:19:42;;;;;;;5.17;3.10;;;;;;;8.75;68.04;101913.66;5031056;28;20029;-77
2022/05/05 03:22:07;;;;;;;6.50;3.20;;;;;;;8.74;68.16;101909.31;5035719;28;20027;-77
2022/05/05 03:24:32;;;;;;;4.97;3.28;;;;;;;8.72;68.15;101911.03;5035721;28;20028;-77
2022/05/05 03:27:01;;;;;;;5.38;3.20;;;;;;;8.71;68.08;101911.00;5034582;28;20029;-77
2022/05/05 03:29:27;;;;;;;4.97;3.00;;;;;;;8.68;68.02;101909.25;5035813;28;20021;-77
2022/05/05 03:31:53;;;;;;;7.00;3.30;;;;;;;8.68;68.07;101910.97;5035080;28;20022;-77
2022/05/05 03:34:19;;;;;;;7.28;3.50;;;;;;;8.67;68.14;101922.19;5034589;28;20389;-77
2022/05/05 03:36:45;;;;;;;5.40;3.20;;;;;;;8.65;68.14;101923.03;5035281;28;20021;-77
2022/05/05 03:39:10;;;;;;;5.60;3.35;;;;;;;8.63;68.23;101924.72;5035016;28;20413;-77
2022/05/05 03:41:35;;;;;;;6.87;3.27;;;;;;;8.62;68.25;101923.00;5034581;28;20113;-77
2022/05/05 03:44:02;;;;;;;5.60;3.13;;;;;;;8.59;68.08;101920.38;5035244;28;20022;-77
2022/05/05 03:46:29;;;;;;;5.90;3.47;;;;;;;8.57;68.24;101916.91;5034704;28;20025;-77
2022/05/05 03:48:54;;;;;;;5.80;3.28;;;;;;;8.57;68.36;101922.09;5034924;28;20474;-77
2022/05/05 03:51:19;;;;;;;5.68;3.17;;;;;;;8.55;68.60;101920.34;5035142;28;20076;-77
2022/05/05 03:53:45;;;;;;;4.80;3.07;;;;;;;8.55;68.37;101926.38;5034136;28;20025;-77
2022/05/05 03:56:10;;;;;;;5.47;3.17;;;;;;;8.55;68.26;101918.63;5035095;28;20030;-77
2022/05/05 03:58:35;;;;;;;6.83;3.47;;;;;;;8.55;68.45;101922.94;5035295;28;20374;-77
2022/05/05 04:01:01;;;;;;;5.97;3.38;;;;;;;8.54;68.61;101931.53;5033913;28;20067;-77
2022/05/05 04:03:32;;;;;;;5.97;3.70;;;;;;;8.57;68.50;101932.44;5034717;28;20026;-77
2022/05/05 04:06:05;;;;;;;5.68;3.40;;;;;;;8.59;69.02;101937.63;5034694;28;20482;-77
2022/05/05 04:08:32;;;;;;;5.22;3.25;;;;;;;8.59;68.96;101938.50;5033911;28;20025;-77
2022/05/05 04:10:57;;;;;;;4.18;3.10;;;;;;;8.60;68.97;101935.06;5034497;28;20603;-77
2022/05/05 04:13:25;;;;;;;3.78;2.72;;;;;;;8.63;69.11;101942.00;5035202;28;20029;-77
2022/05/05 04:15:53;;;;;;;4.95;3.10;;;;;;;8.65;68.92;101945.47;5033808;28;20039;-77
2022/05/05 04:18:19;;;;;;;6.22;3.30;;;;;;;8.67;68.99;101937.72;5034875;28;20393;-77
2022/05/05 04:20:44;;;;;;;5.23;3.10;;;;;;;8.69;69.16;101936.84;5034472;28;20026;-77
2022/05/05 04:23:10;;;;;;;6.28;3.15;;;;;;;8.72;69.13;101947.25;5033991;28;20117;-77
2022/05/05 04:25:40;;;;;;;5.67;3.10;;;;;;;8.74;69.03;101958.50;5034827;28;20104;-77
2022/05/05 04:28:07;;;;;;;5.35;2.92;;;;;;;8.79;69.24;101958.53;5034595;28;20082;-77
2022/05/05 04:30:32;;;;;;;;;;;;;;;8.81;69.14;101957.69;5034206;28;20029;-77
2022/05/05 04:32:57;;;;;;;7.10;3.40;;;;;;;8.84;69.00;101956.00;5033855;28;19982;-77
2022/05/05 04:35:23;;;;;;;4.65;2.90;;;;;;;8.85;69.16;101958.59;5034265;28;20026;-77
2022/05/05 04:37:49;;;;;;;5.03;2.97;;;;;;;8.87;69.42;101961.22;5033190;28;20451;-77
2022/05/05 04:40:14;;;;;;;5.30;2.90;;;;;;;8.90;69.04;101967.28;5034623;28;20079;-77
2022/05/05 04:42:39;;;;;;;4.77;3.10;;;;;;;8.90;69.30;101971.56;5032837;28;20128;-77
2022/05/05 04:45:05;;;;;;;4.70;3.00;;;;;;;8.94;69.51;101965.59;5034138;28;20033;-77
2022/05/05 04:47:33;;;;;;;3.77;2.67;;;;;;;8.94;69.81;101961.28;5034207;28;20038;-77
2022/05/05 04:49:58;;;;;;;4.82;2.80;;;;;;;8.96;69.31;101956.13;5033083;28;20846;-77
2022/05/05 04:52:24;;;;;;;4.50;2.80;;;;;;;9.01;69.24;101959.59;5033747;28;20050;-77
2022/05/05 04:54:49;;;;;;;4.87;2.60;;;;;;;9.04;69.45;101963.97;5033758;28;20026;-77
2022/05/05 04:57:15;;;;;;;5.47;3.00;;;;;;;9.07;69.16;101963.97;5032377;28;20033;-77
2022/05/05 04:59:40;;;;;;;4.20;3.03;;;;;;;9.09;69.32;101964.84;5033580;28;20025;-77
2022/05/05 05:02:23;;;;;;;5.03;3.07;;;;;;;9.13;69.36;101969.22;5033315;28;20033;-78
2022/05/05 05:04:49;;;;;;;5.18;3.00;;;;;;;9.18;69.38;101966.66;5032908;28;20027;-77
2022/05/05 05:07:14;;;;;;;5.23;3.10;;;;;;;9.22;69.27;101973.63;5033539;28;20112;-77
2022/05/05 05:09:39;;;;;;;7.83;3.53;;;;;;;9.25;69.14;101976.22;5033225;28;20048;-77
2022/05/05 05:12:05;;;;;;;6.00;3.10;;;;;;;9.26;69.54;101976.25;5032723;28;20457;-77
2022/05/05 05:14:30;;;;;;;5.15;3.00;;;;;;;9.30;69.59;101981.44;5032558;28;20021;-77
2022/05/05 05:16:55;;;;;;;5.23;3.10;;;;;;;9.31;69.47;101986.63;5033282;28;20045;-77
2022/05/05 05:19:21;;;;;;;4.93;3.17;;;;;;;9.36;69.89;101987.53;5032808;28;20099;-77
2022/05/05 05:21:47;;;;;;;7.03;3.50;;;;;;;9.40;69.74;101994.47;5032631;28;20116;-77
2022/05/05 05:24:13;;;;;;;6.70;3.67;;;;;;;9.43;69.58;101985.84;5033755;28;20478;-77
2022/05/05 05:26:38;;;;;;;6.57;3.60;;;;;;;9.50;69.43;102000.63;5032516;28;20038;-77
2022/05/05 05:29:06;;;;;;;6.03;3.50;;;;;;;9.54;69.12;101999.75;5033411;28;20393;-78
2022/05/05 05:31:32;;;;;;;7.22;4.00;;;;;;;9.60;69.15;102000.69;5033319;28;20075;-78
2022/05/05 05:33:57;;;;;;;7.77;4.00;;;;;;;9.68;69.21;101999.00;5032329;28;20100;-77
2022/05/05 05:36:26;;;;;;;7.03;3.70;;;;;;;9.75;69.10;101998.19;5032591;28;20040;-77
2022/05/05 05:38:51;;;;;;;8.07;3.97;;;;;;;9.81;69.21;102003.41;5287281;22;20442;-76
2022/05/05 05:41:16;;;;;;;6.67;3.67;;;;;;;9.88;68.90;102005.19;5012751;28;20037;-76
2022/05/05 05:43:42;;;;;;;5.23;3.37;;;;;;;9.94;69.13;102012.13;5012707;28;20497;-76
2022/05/05 05:46:08;;;;;;;7.23;4.00;;;;;;;10.00;68.93;102003.53;5012810;28;20152;-75
2022/05/05 05:48:33;;;;;;;8.77;4.22;;;;;;;10.08;68.76;102008.75;5013359;28;20025;-75
2022/05/05 05:50:59;;;;;;;7.57;3.87;;;;;;;10.14;68.91;102006.19;5013180;28;20049;-75
2022/05/05 05:53:25;;;;;;;6.80;3.73;;;;;;;10.20;69.12;102001.03;5012849;28;20030;-75
2022/05/05 05:55:50;;;;;;;10.90;4.83;;;;;;;10.25;71.14;102004.50;5013002;28;20168;-76
2022/05/05 05:58:15;;;;;;;16.27;7.37;;;;;;;10.28;69.74;102012.31;5013393;28;20112;-76
2022/05/05 06:00:42;;;;;;;13.80;5.97;;;;;;;10.35;69.24;102006.31;5012231;28;20057;-78
2022/05/05 06:05:51;;;;;;;10.00;4.80;;;;;;;10.57;69.24;102022.00;5012720;28;20052;-77
2022/05/05 06:08:17;;;;;;;7.53;4.40;;;;;;;10.66;70.25;102023.75;5012507;28;20030;-77
2022/05/05 06:10:42;;;;;;;8.13;4.23;;;;;;;10.76;70.14;102024.66;5012911;28;20029;-77
2022/05/05 06:13:08;;;;;;;14.23;6.80;;;;;;;10.81;69.46;102021.19;5013298;28;20069;-77
2022/05/05 06:15:33;;;;;;;13.83;6.53;;;;;;;10.88;67.79;102019.50;5012373;28;20030;-77
2022/05/05 06:17:59;;;;;;;10.37;5.10;;;;;;;10.99;68.72;102016.03;5012598;28;20034;-77
2022/05/05 06:20:24;;;;;;;12.73;5.70;;;;;;;11.09;68.38;102021.25;5013098;28;20022;-77
2022/05/05 06:22:52;;;;;;;13.77;6.10;;;;;;;11.16;69.11;102018.66;5011922;28;20034;-77
2022/05/05 06:25:20;;;;;;;12.57;5.88;;;;;;;11.24;68.41;102024.72;5013134;28;20439;-77
2022/05/05 06:27:46;;;;;;;11.13;5.30;;;;;;;11.33;68.27;102023.88;5012532;28;20022;-77
2022/05/05 06:30:13;;;;;;;12.18;5.88;;;;;;;11.41;66.36;102022.13;5011835;28;20033;-78
2022/05/05 06:32:39;;;;;;;17.27;7.18;;;;;;;11.49;68.56;102023.00;5007572;28;20379;-77
2022/05/05 06:35:05;;;;;;;15.43;7.03;;;;;;;11.58;68.62;102024.75;5012893;28;20044;-77
2022/05/05 06:37:30;;;;;;;14.17;6.57;;;;;;;11.83;68.03;102022.97;5011217;28;20533;-78
2022/05/05 06:39:55;;;;;;;16.50;8.10;;;;;;;12.64;66.34;102031.44;4992577;28;20042;-82
2022/05/05 06:42:27;;;;;;;17.97;7.33;;;;;;;13.50;65.41;102025.69;4992136;28;20026;-80
2022/05/05 06:44:52;;;;;;;15.60;7.60;;;;;;;14.55;62.05;102026.31;5002166;28;20434;-81
2022/05/05 06:47:20;;;;;;;16.90;7.20;;;;;;;16.32;59.15;102030.41;5011840;28;20036;-80
2022/05/05 06:49:45;;;;;;;12.85;5.88;;;;;;;18.08;59.52;102018.38;5010772;28;20092;-80
2022/05/05 06:52:10;;;;;;;14.00;6.83;;;;;;;19.64;52.82;102028.47;5011817;28;20486;-80
2022/05/05 06:54:36;;;;;;;14.43;6.93;;;;;;;20.61;49.08;102029.34;5012200;28;20030;-80
2022/05/05 06:57:01;;;;;;;12.10;6.10;;;;;;;21.48;46.95;102036.47;5015202;28;20037;-80
2022/05/05 06:59:26;;;;;;;10.83;5.40;;;;;;;22.06;47.98;102036.59;5014763;28;20026;-80
2022/05/05 07:01:52;;;;;;;9.63;5.20;;;;;;;22.36;47.75;102027.31;5015074;28;20022;-80
2022/05/05 07:07:06;;;;;;;9.65;5.00;;;;;;;21.95;46.66;102044.16;5016537;28;20045;-80
2022/05/05 07:12:15;;;;;;;9.30;4.60;;;;;;;20.23;47.58;102050.97;5015898;28;20040;-78
2022/05/05 07:14:41;;;;;;;9.07;4.60;;;;;;;19.41;49.55;102057.31;5015611;28;20385;-80
2022/05/05 07:17:08;;;;;;;9.30;4.67;;;;;;;18.73;50.23;102056.78;5016222;28;20045;-80
2022/05/05 07:19:33;;;;;;;7.72;4.43;;;;;;;18.19;52.52;102058.34;5015393;28;20128;-78
2022/05/05 07:21:58;;;;;;;7.40;4.13;;;;;;;17.85;52.46;102062.72;5015788;28;20041;-78
2022/05/05 07:24:26;;;;;;;6.47;3.67;;;;;;;17.54;52.86;102071.38;5012741;28;20034;-79
2022/05/05 07:26:51;;;;;;;17.98;8.63;;;;;;;17.10;51.43;102071.56;5014371;28;20026;-78
2022/05/05 07:29:16;;;;;;;14.60;6.90;;;;;;;16.68;53.81;102072.47;5015234;28;20033;-79
2022/05/05 07:31:42;;;;;;;16.47;7.60;;;;;;;16.44;53.77;102065.94;5014541;28;20087;-78
2022/05/05 07:34:07;;;;;;;13.97;6.70;;;;;;;16.33;56.22;102078.41;5013651;28;20042;-78
2022/05/05 07:36:32;;;;;;;20.80;10.73;;;;;;;16.26;54.49;102075.06;5015601;28;20034;-78
2022/05/05 07:38:58;;;;;;;19.43;9.20;;;;;;;16.16;56.44;102077.00;5014075;28;20375;-78
2022/05/05 07:41:23;;;;;;;16.87;8.23;;;;;;;16.26;56.79;102079.44;5015662;28;20026;-78
2022/05/05 07:43:50;;;;;;;21.13;11.00;;;;;;;16.24;56.46;102082.09;5015321;28;20452;-78
2022/05/05 07:46:17;;;;;;;27.05;16.23;;;;;;;16.16;54.94;102081.34;5014868;28;20379;-78
2022/05/05 07:48:43;;;;;;;27.75;16.55;;;;;;;15.90;56.02;102077.47;5015108;28;20026;-78
2022/05/05 07:51:09;;;;;;;24.33;14.00;;;;;;;15.82;56.51;102077.56;5015446;28;20036;-78
2022/05/05 07:53:34;;;;;;;22.63;12.43;;;;;;;15.87;56.82;102080.13;5014782;28;20113;-78
2022/05/05 07:55:59;;;;;;;28.17;16.50;;;;;;;15.85;57.20;102072.31;5015290;28;20045;-79
2022/05/05 07:58:24;;;;;;;28.03;17.20;;;;;;;15.65;58.07;102092.72;5015665;28;20387;-78
2022/05/05 08:00:50;;;;;;;27.80;16.83;;;;;;;15.51;57.61;102085.06;5014490;28;20497;-78
2022/05/05 08:03:15;;;;;;;28.37;18.03;;;;;;;15.39;58.01;102097.44;5015355;28;20030;-78
2022/05/05 08:05:40;;;;;;;23.30;13.43;;;;;;;15.47;58.71;102086.88;5014166;28;20043;-78
2022/05/05 08:08:06;;;;;;;21.67;11.47;;;;;;;15.65;58.37;102090.09;5014224;28;20037;-78
2022/05/05 08:10:32;;;;;;;19.40;9.53;;;;;;;15.84;57.94;102085.38;5015069;28;20041;-79
2022/05/05 08:12:57;;;;;;;18.25;8.68;;;;;;;15.95;57.91;102088.72;5014933;28;20037;-78
2022/05/05 08:15:22;;;;;;;17.10;7.63;;;;;;;16.13;58.13;102094.53;5014437;28;20470;-80
2022/05/05 08:17:48;;;;;;;14.07;6.73;;;;;;;16.24;57.68;102097.81;5014869;28;20364;-78
2022/05/05 08:20:16;;;;;;;17.37;7.60;;;;;;;16.32;57.29;102095.03;5015018;28;20096;-78
2022/05/05 08:22:42;;;;;;;23.65;12.73;;;;;;;16.38;56.36;102104.53;5013793;28;20041;-79
2022/05/05 08:30:36;;;;;;;19.42;10.02;;;;;;;16.30;57.63;102107.31;5015036;28;20041;-79
2022/05/05 08:33:01;;;;;;;17.27;8.03;;;;;;;16.43;57.48;102105.28;5014183;28;20486;-78
2022/05/05 08:35:27;;;;;;;15.33;7.10;;;;;;;16.55;57.54;102112.91;5013860;28;20029;-79
2022/05/05 08:37:54;;;;;;;21.55;11.90;;;;;;;16.54;55.58;102115.56;5014371;28;20042;-78
2022/05/05 08:40:23;;;;;;;29.30;17.45;;;;;;;16.23;56.30;102119.66;5014339;28;20033;-78
2022/05/05 08:42:48;;;;;;;30.83;19.40;;;;;;;15.89;57.00;102108.00;5013235;28;20030;-78
2022/05/05 08:45:14;;;;;;;31.07;19.73;;;;;;;15.69;57.34;102115.31;5014531;28;20037;-78
2022/05/05 08:47:41;;;;;;;30.50;20.10;;;;;;;15.53;57.56;102125.16;5014158;28;20038;-79
2022/05/05 08:50:11;;;;;;;28.40;17.77;;;;;;;15.37;58.60;102119.31;5013853;28;20034;-78
2022/05/05 08:52:45;;;;;;;29.25;18.05;;;;;;;15.33;58.43;102123.72;5014420;28;20022;-79
2022/05/05 08:55:15;;;;;;;27.00;16.20;;;;;;;15.33;58.82;102128.94;5014509;28;20113;-78
2022/05/05 08:57:41;;;;;;;23.77;13.13;;;;;;;15.50;58.24;102125.19;5013299;28;20088;-79
2022/05/05 09:00:07;;;;;;;20.58;11.05;;;;;;;15.71;58.50;102118.78;5014282;28;20474;-79
2022/05/05 09:02:33;;;;;;;25.88;15.25;;;;;;;15.83;57.90;102126.41;5014032;28;20026;-78
2022/05/05 09:04:58;;;;;;;22.47;12.50;;;;;;;15.88;58.02;102119.38;5013378;28;20034;-78
2022/05/05 09:07:48;;;;;;;20.60;11.00;;;;;;;16.08;58.37;102123.41;5013893;28;20034;-79
2022/05/05 09:10:16;;;;;;;19.25;9.50;;;;;;;16.21;57.81;102124.88;5013147;28;20029;-79
2022/05/05 09:12:42;;;;;;;15.18;7.10;;;;;;;16.39;57.78;102130.69;5013451;28;20436;-78
2022/05/05 09:15:11;;;;;;;22.10;11.93;;;;;;;16.48;56.17;102135.75;5013458;28;20117;-79
2022/05/05 09:17:36;;;;;;;28.83;17.35;;;;;;;16.38;56.48;102136.81;5012056;28;20030;-80
2022/05/05 09:20:03;;;;;;;28.67;18.10;;;;;;;16.28;56.33;102135.28;5013220;28;20115;-78
2022/05/05 09:22:29;;;;;;;29.75;18.45;;;;;;;16.23;56.80;102139.72;5013752;28;20379;-78
2022/05/05 09:24:56;;;;;;;31.43;19.93;;;;;;;16.26;56.37;102134.44;5012449;28;20032;-78
2022/05/05 09:27:32;;;;;;;25.58;15.63;;;;;;;16.33;56.72;102136.03;5013311;28;20113;-78
2022/05/05 09:30:00;;;;;;;22.73;13.18;;;;;;;16.53;56.85;102140.91;5013535;28;20030;-79
2022/05/05 09:32:30;;;;;;;19.67;10.85;;;;;;;16.78;56.93;102140.41;5013027;28;20049;-79
2022/05/05 09:35:00;;;;;;;16.63;8.68;;;;;;;17.03;56.87;102142.56;5013411;28;20022;-79
2022/05/05 09:37:25;;;;;;;25.25;14.90;;;;;;;17.26;54.80;102142.91;5013469;28;20034;-79
2022/05/05 09:40:02;;;;;;;22.13;11.97;;;;;;;17.29;55.56;102147.22;5010885;28;20104;-79
2022/05/05 09:42:44;;;;;;;20.25;10.88;;;;;;;17.45;54.71;102148.56;5013639;28;20092;-79
2022/05/05 09:45:22;;;;;;;19.55;10.27;;;;;;;17.59;55.41;102148.28;4998613;28;20117;-80
2022/05/05 09:48:09;;;;;;;16.95;8.30;;;;;;;17.83;55.61;102151.19;5011093;28;20052;-79
2022/05/05 09:50:34;;;;;;;15.98;7.55;;;;;;;17.99;54.83;102148.19;5005214;28;20041;-78
2022/05/05 09:58:52;;;;;;;28.90;18.30;;;;;;;17.37;54.06;102155.78;5013526;28;20129;-79
2022/05/05 10:01:24;;;;;;;24.98;15.15;;;;;;;17.52;54.09;102157.16;5012436;28;20027;-79
2022/05/05 10:04:00;;;;;;;21.08;12.18;;;;;;;17.62;53.89;102156.97;5012918;28;20025;-79
2022/05/05 10:06:42;;;;;;;19.02;10.27;;;;;;;17.77;54.28;102160.97;5012232;28;20042;-78
2022/05/05 10:09:10;;;;;;;18.58;9.57;;;;;;;17.98;52.37;102154.34;5012398;28;20033;-79
2022/05/05 10:11:39;;;;;;;32.58;21.40;;;;;;;17.70;51.64;102153.25;5013301;28;20030;-81
2022/05/05 10:14:06;;;;;;;30.35;20.05;;;;;;;17.63;52.98;102162.19;5012191;28;20036;-80
2022/05/05 10:16:31;;;;;;;27.52;17.60;;;;;;;17.63;53.15;102154.31;4993220;28;20034;-77
2022/05/05 10:18:57;;;;;;;21.83;12.93;;;;;;;17.81;53.48;102160.00;4993175;28;20037;-78
2022/05/05 10:21:44;;;;;;;20.50;11.35;;;;;;;18.10;52.71;102155.81;5006481;28;20030;-78
2022/05/05 10:24:27;;;;;;;25.42;14.60;;;;;;;18.20;52.88;102146.78;5012998;28;20574;-78
2022/05/05 10:26:54;;;;;;;31.85;20.95;;;;;;;18.25;51.10;102149.28;5012263;28;20038;-78
2022/05/05 10:29:32;;;;;;;30.40;18.85;;;;;;;18.23;50.27;102151.09;5012617;28;20417;-79
2022/05/05 10:32:26;;;;;;;24.77;15.43;;;;;;;18.31;51.65;102151.72;5016742;28;20056;-78
2022/05/05 10:35:07;;;;;;;22.85;13.02;;;;;;;18.52;51.13;102145.88;5015561;28;20540;-78
2022/05/05 10:37:36;;;;;;;19.20;9.80;;;;;;;18.71;51.48;102150.63;5016513;28;20034;-79
2022/05/05 10:40:09;;;;;;;20.98;11.73;;;;;;;18.86;50.36;102151.97;5016011;28;20033;-79
2022/05/05 10:42:45;;;;;;;20.88;11.25;;;;;;;19.00;51.66;102148.09;5016077;28;20025;-77
2022/05/05 10:45:29;;;;;;;15.40;7.85;;;;;;;19.20;50.96;102144.81;5016939;28;20033;-79
2022/05/05 10:47:55;;;;;;;18.10;9.50;;;;;;;19.33;50.28;102150.59;5016564;28;20026;-78
2022/05/05 10:50:50;;;;;;;20.30;11.67;;;;;;;19.38;48.36;102156.56;5016076;28;20029;-79
2022/05/05 10:53:33;;;;;;;28.92;20.17;;;;;;;19.13;49.40;102150.28;5016700;28;20022;-79
2022/05/05 10:56:01;;;;;;;27.25;18.30;;;;;;;19.10;48.57;102154.78;5015687;28;20121;-79
2022/05/05 10:58:56;;;;;;;29.88;21.27;;;;;;;18.93;50.04;102153.50;5016470;28;20101;-79
2022/05/05 11:01:22;;;;;;;26.23;17.17;;;;;;;19.02;49.98;102155.03;5016553;28;20061;-79
2022/05/05 11:04:13;;;;;;;20.50;12.23;;;;;;;19.31;50.78;102152.41;5015414;28;20050;-78
2022/05/05 11:06:39;;;;;;;17.83;10.25;;;;;;;19.66;50.96;102153.06;4999157;28;20394;-79
2022/05/05 11:09:05;;;;;;;15.37;8.30;;;;;;;19.99;48.71;102148.44;5016310;28;20026;-79
2022/05/05 11:11:41;;;;;;;27.55;19.00;;;;;;;19.85;47.79;102150.66;5015566;28;20112;-79
2022/05/05 11:23:12;;;;;;;19.85;11.70;;;;;;;20.03;48.76;102152.69;5015929;28;20049;-79
2022/05/05 11:25:44;;;;;;;16.45;8.40;;;;;;;20.29;48.74;102143.03;5015084;28;20034;-78
2022/05/05 11:28:09;;;;;;;13.35;6.50;;;;;;;20.52;48.67;102149.25;5016082;28;20092;-79
2022/05/05 11:30:35;;;;;;;11.70;6.30;;;;;;;20.77;47.51;102149.22;5015126;28;20038;-79
2022/05/05 11:33:03;;;;;;;9.60;5.50;;;;;;;20.97;48.03;102145.84;5015783;28;20419;-79
2022/05/05 11:35:28;;;;;;;8.95;4.88;;;;;;;21.16;46.33;102145.09;5016155;28;20026;-79
2022/05/05 11:37:54;;;;;;;20.30;10.87;;;;;;;21.16;43.68;102144.25;5014733;28;20050;-79
2022/05/05 11:40:19;;;;;;;18.23;10.17;;;;;;;21.06;43.83;102149.88;5014997;28;20038;-80
2022/05/05 11:45:29;;;;;;;11.93;6.25;;;;;;;21.08;44.90;102150.69;5015217;28;20041;-79
2022/05/05 11:47:55;;;;;;;20.83;11.70;;;;;;;21.09;41.69;102146.28;5015611;28;20438;-79
2022/05/05 11:50:20;;;;;;;15.60;8.25;;;;;;;21.06;44.32;102146.38;5014699;28;20028;-80
2022/05/05 11:52:46;;;;;;;13.83;7.30;;;;;;;21.13;45.79;102151.38;5014194;28;20030;-79
2022/05/05 11:55:13;;;;;;;11.73;6.38;;;;;;;21.40;43.61;102150.34;5015341;28;20030;-79
2022/05/05 11:57:39;;;;;;;22.08;13.60;;;;;;;21.31;43.19;102148.91;5015042;28;20033;-80
2022/05/05 12:02:50;;;;;;;24.98;16.52;;;;;;;20.97;41.91;102143.19;5014247;28;20448;-80
2022/05/05 12:05:15;;;;;;;19.03;10.53;;;;;;;21.08;44.25;102142.75;5015328;28;20026;-79
2022/05/05 12:07:44;;;;;;;14.63;7.60;;;;;;;21.37;44.50;102140.75;5014366;28;20041;-80
2022/05/05 12:10:13;;;;;;;11.68;5.82;;;;;;;21.63;45.30;102133.56;5014641;28;20040;-80
2022/05/05 12:12:42;;;;;;;8.07;4.90;;;;;;;21.69;45.28;102130.69;5015276;28;20112;-79